Time;durP1;ratioP1;P1;durP2;ratioP2;P2;SDS_P1;SDS_P2;PMS_P1;PMS_P2;Temp;Humidity;BMP_temperature;BMP_pressure;BME280_temperature;BME280_humidity;BME280_pressure;Samples;Min_cycle;Max_cycle;Signal;HPM_P1;HPM_P2
2021/07/31 00:00:21;;;;;;;;;;;;;;;20.54;68.37;98110.31;5004126;28;20009;-63
2021/07/31 00:02:46;;;;;;;;;;;;;;;20.18;67.02;98103.84;5007065;28;20004;-63
2021/07/31 00:05:12;;;;;;;;;;;;;;;20.10;66.76;98106.31;5009310;28;20004;-62
2021/07/31 00:07:37;;;;;;;;;;;;;;;19.96;69.63;98105.72;5006371;28;19921;-63
2021/07/31 00:10:03;;;;;;;;;;;;;;;20.11;64.90;98100.13;5003223;28;19960;-60
2021/07/31 00:12:29;;;;;;;;;;;;;;;20.11;67.74;98100.13;5010241;28;19926;-61
2021/07/31 00:14:54;;;;;;;;;;;;;;;19.16;74.32;98096.66;5004277;28;19921;-60
2021/07/31 00:17:20;;;;;;;;;;;;;;;18.61;77.27;98106.28;5002909;28;19917;-60
2021/07/31 00:19:45;;;;;;;;;;;;;;;19.49;70.98;98086.16;5007148;28;19917;-61
2021/07/31 00:22:10;;;;;;;;;;;;;;;19.41;71.39;98085.00;5005526;28;20642;-62
2021/07/31 00:24:36;;;;;;;;;;;;;;;18.93;72.06;98084.63;5002421;28;20588;-60
2021/07/31 00:27:01;;;;;;;;;;;;;;;18.80;74.14;98085.63;5006438;28;19978;-62
2021/07/31 00:29:27;;;;;;;;;;;;;;;18.69;75.14;98088.22;5006982;28;19929;-60
2021/07/31 00:31:52;;;;;;;;;;;;;;;19.18;71.49;98089.53;5005197;28;20295;-61
2021/07/31 00:34:17;;;;;;;;;;;;;;;19.15;68.63;98081.94;5014157;28;19960;-62
2021/07/31 00:36:43;;;;;;;;;;;;;;;19.37;70.50;98074.97;5010288;28;19921;-62
2021/07/31 00:39:08;;;;;;;;;;;;;;;19.36;69.14;98074.13;5002566;28;19918;-62
2021/07/31 00:41:34;;;;;;;;;;;;;;;18.99;71.93;98079.75;5002450;28;19953;-62
2021/07/31 00:43:59;;;;;;;;;;;;;;;19.11;70.85;98090.13;5001945;28;20283;-62
2021/07/31 00:46:25;;;;;;;;;;;;;;;19.12;71.99;98091.81;5002816;28;19932;-62
2021/07/31 00:48:50;;;;;;;;;;;;;;;19.13;69.88;98078.63;4985470;28;19952;-60
2021/07/31 00:51:16;;;;;;;;;;;;;;;19.77;61.87;98079.47;4990978;28;20405;-62
2021/07/31 00:53:44;;;;;;;;;;;;;;;19.90;64.53;98080.09;5008309;28;20354;-62
2021/07/31 00:56:10;;;;;;;;;;;;;;;19.04;69.39;98089.81;5006140;28;19927;-63
2021/07/31 00:58:36;;;;;;;;;;;;;;;19.29;68.38;98085.19;4985140;28;19921;-61
2021/07/31 01:01:01;;;;;;;;;;;;;;;18.78;68.96;98091.91;5003258;28;19990;-60
2021/07/31 01:03:27;;;;;;;;;;;;;;;18.76;72.24;98089.41;5001740;28;19929;-62
2021/07/31 01:05:52;;;;;;;;;;;;;;;18.52;74.89;98091.34;5004318;28;20278;-62
2021/07/31 01:08:17;;;;;;;;;;;;;;;18.94;70.78;98094.94;4991479;28;19919;-62
2021/07/31 01:10:43;;;;;;;;;;;;;;;18.57;72.83;98092.66;5012908;28;19917;-63
2021/07/31 01:13:09;;;;;;;;;;;;;;;18.79;71.15;98089.19;5005752;28;19980;-63
2021/07/31 01:15:34;;;;;;;;;;;;;;;18.48;74.43;98090.78;5002462;28;19964;-62
2021/07/31 01:18:00;;;;;;;;;;;;;;;18.00;76.58;98091.06;5008899;28;19921;-60
2021/07/31 01:20:25;;;;;;;;;;;;;;;18.23;75.77;98097.09;5003333;28;19928;-61
2021/07/31 01:22:50;;;;;;;;;;;;;;;18.65;72.46;98088.59;5003029;28;20021;-61
2021/07/31 01:25:16;;;;;;;;;;;;;;;18.32;75.22;98095.53;5010360;28;20012;-61
2021/07/31 01:27:41;;;;;;;;;;;;;;;18.42;76.24;98093.84;5013221;28;19960;-61
2021/07/31 01:30:07;;;;;;;;;;;;;;;18.72;70.75;98092.38;5010532;28;20005;-63
2021/07/31 01:32:32;;;;;;;;;;;;;;;18.30;74.56;98090.44;5007473;28;20364;-60
2021/07/31 01:34:57;;;;;;;;;;;;;;;17.89;78.95;98097.06;5005914;28;19922;-64
2021/07/31 01:37:23;;;;;;;;;;;;;;;18.33;76.52;98098.00;5005077;28;19917;-62
2021/07/31 01:39:48;;;;;;;;;;;;;;;18.57;73.51;98082.22;5006724;28;20024;-60
2021/07/31 01:42:14;;;;;;;;;;;;;;;18.21;77.05;98093.75;4998937;28;19940;-62
2021/07/31 01:44:39;;;;;;;;;;;;;;;18.12;77.96;98086.66;4994891;28;19980;-61
2021/07/31 01:47:05;;;;;;;;;;;;;;;18.01;76.81;98081.44;5006112;28;19914;-63
2021/07/31 01:49:30;;;;;;;;;;;;;;;18.12;78.05;98077.06;5002753;28;19913;-63
2021/07/31 01:51:55;;;;;;;;;;;;;;;18.73;73.49;98073.19;5002521;28;20003;-63
2021/07/31 01:54:21;;;;;;;;;;;;;;;18.88;71.44;98076.34;5003218;28;19969;-63
2021/07/31 01:56:47;;;;;;;;;;;;;;;18.99;70.74;98078.91;5001237;28;19928;-63
2021/07/31 01:59:13;;;;;;;;;;;;;;;18.38;76.45;98075.03;5006067;28;20418;-59
2021/07/31 02:01:38;;;;;;;;;;;;;;;18.57;74.96;98078.78;5007953;28;20013;-62
2021/07/31 02:04:03;;;;;;;;;;;;;;;17.92;80.14;98072.56;5008499;28;19921;-62
2021/07/31 02:06:29;;;;;;;;;;;;;;;18.04;79.82;98069.03;5004548;28;20012;-62
2021/07/31 02:08:54;;;;;;;;;;;;;;;18.29;78.03;98067.94;5002075;28;19917;-61
2021/07/31 02:11:20;;;;;;;;;;;;;;;18.49;74.57;98066.34;5001725;28;19928;-60
2021/07/31 02:13:45;;;;;;;;;;;;;;;18.29;76.73;98061.88;5002510;28;19984;-62
2021/07/31 02:16:20;;;;;;;;;;;;;;;17.89;81.40;98072.81;5006906;28;20299;-61
2021/07/31 02:18:45;;;;;;;;;;;;;;;18.79;70.93;98057.91;5002325;28;19917;-60
2021/07/31 02:21:11;;;;;;;;;;;;;;;17.98;79.88;98062.50;5001206;28;20451;-63
2021/07/31 02:23:36;;;;;;;;;;;;;;;17.93;80.64;98054.22;5000513;28;20394;-61
2021/07/31 02:26:01;;;;;;;;;;;;;;;17.77;82.53;98051.94;5013048;28;19917;-61
2021/07/31 02:28:27;;;;;;;;;;;;;;;17.70;83.01;98057.75;5001448;28;20370;-62
2021/07/31 02:30:52;;;;;;;;;;;;;;;17.40;86.18;98056.47;5006816;28;19918;-61
2021/07/31 02:33:18;;;;;;;;;;;;;;;17.28;87.65;98049.59;5008499;28;19917;-62
2021/07/31 02:35:43;;;;;;;;;;;;;;;17.24;88.86;98050.78;5007183;28;19920;-62
2021/07/31 02:38:08;;;;;;;;;;;;;;;17.65;85.77;98058.09;5006704;28;20328;-62
2021/07/31 02:40:34;;;;;;;;;;;;;;;17.65;86.29;98049.44;5004419;28;19968;-59
2021/07/31 02:42:59;;;;;;;;;;;;;;;17.98;83.00;98039.06;5004091;28;19921;-60
2021/07/31 02:45:24;;;;;;;;;;;;;;;17.61;86.00;98051.47;5005859;28;19975;-61
2021/07/31 02:47:50;;;;;;;;;;;;;;;17.80;84.51;98039.63;5007415;28;19917;-60
2021/07/31 02:50:16;;;;;;;;;;;;;;;17.60;85.21;98041.97;5004395;28;20516;-62
2021/07/31 02:52:41;;;;;;;;;;;;;;;17.36;85.99;98044.66;4981863;28;19925;-63
2021/07/31 02:55:07;;;;;;;;;;;;;;;17.67;85.09;98037.13;5003045;28;20000;-62
2021/07/31 02:57:32;;;;;;;;;;;;;;;17.41;86.75;98032.13;5003362;28;20334;-61
2021/07/31 02:59:58;;;;;;;;;;;;;;;17.43;87.10;98040.66;5015987;28;19914;-61
2021/07/31 03:02:25;;;;;;;;;;;;;;;17.20;88.15;98033.75;5016009;28;19917;-60
2021/07/31 03:04:51;;;;;;;;;;;;;;;17.74;83.54;98040.91;5006323;28;20334;-63
2021/07/31 03:07:16;;;;;;;;;;;;;;;17.43;85.92;98035.44;5013058;28;19917;-62
2021/07/31 03:09:41;;;;;;;;;;;;;;;17.40;87.14;98034.84;5012877;28;19964;-62
2021/07/31 03:12:07;;;;;;;;;;;;;;;17.13;86.66;98029.00;5013664;28;19932;-61
2021/07/31 03:14:32;;;;;;;;;;;;;;;17.41;87.94;98039.94;5015971;28;19918;-61
2021/07/31 03:16:58;;;;;;;;;;;;;;;17.30;89.03;98034.72;5009409;28;19993;-63
2021/07/31 03:19:23;;;;;;;;;;;;;;;17.35;87.77;98027.38;5007437;28;19964;-61
2021/07/31 03:21:49;;;;;;;;;;;;;;;17.26;89.56;98033.28;5010126;28;19924;-62
2021/07/31 03:24:14;;;;;;;;;;;;;;;17.35;87.81;98029.97;5011095;28;19921;-62
2021/07/31 03:26:39;;;;;;;;;;;;;;;17.63;85.97;98030.50;5009032;28;19920;-62
2021/07/31 03:29:05;;;;;;;;;;;;;;;17.52;87.47;98026.94;5004868;28;19924;-61
2021/07/31 03:31:30;;;;;;;;;;;;;;;16.98;90.84;98031.91;5015677;28;19913;-62
2021/07/31 03:33:56;;;;;;;;;;;;;;;16.80;95.05;98027.09;5010290;28;20403;-62
2021/07/31 03:36:21;;;;;;;;;;;;;;;17.36;90.56;98018.66;5002577;28;19926;-62
2021/07/31 03:38:46;;;;;;;;;;;;;;;17.31;90.47;98020.75;5009596;28;19940;-60
2021/07/31 03:41:12;;;;;;;;;;;;;;;17.33;86.86;98024.06;5006162;28;19941;-63
2021/07/31 03:43:37;;;;;;;;;;;;;;;17.32;89.77;98028.44;5008183;28;19995;-61
2021/07/31 03:46:09;;;;;;;;;;;;;;;17.52;88.42;98019.13;5005015;28;20459;-63
2021/07/31 03:48:34;;;;;;;;;;;;;;;17.78;85.38;98024.94;5008265;28;20048;-63
2021/07/31 03:51:00;;;;;;;;;;;;;;;17.58;86.69;98022.22;5007376;28;20710;-60
2021/07/31 03:53:25;;;;;;;;;;;;;;;17.38;88.72;98019.38;5003753;28;19918;-60
2021/07/31 03:55:53;;;;;;;;;;;;;;;17.06;90.98;98020.00;5003373;28;19971;-60
2021/07/31 03:58:19;;;;;;;;;;;;;;;17.56;84.53;98020.56;5008417;28;19917;-61
2021/07/31 04:00:44;;;;;;;;;;;;;;;17.55;86.86;98018.88;5007731;28;19924;-63
2021/07/31 04:03:10;;;;;;;;;;;;;;;17.60;87.58;98021.16;5004831;28;19956;-59
2021/07/31 04:05:39;;;;;;;;;;;;;;;17.01;91.87;98016.88;5008419;28;20476;-59
2021/07/31 04:08:05;;;;;;;;;;;;;;;17.25;89.86;98024.66;5009054;28;20367;-62
2021/07/31 04:10:30;;;;;;;;;;;;;;;17.27;91.41;98024.53;5009102;28;19917;-62
2021/07/31 04:12:56;;;;;;;;;;;;;;;17.37;89.68;98019.47;5009645;28;19925;-62
2021/07/31 04:15:21;;;;;;;;;;;;;;;17.76;85.65;98020.78;5001999;28;20068;-61
2021/07/31 04:17:50;;;;;;;;;;;;;;;17.27;89.62;98025.38;5003063;28;19946;-61
2021/07/31 04:20:18;;;;;;;;;;;;;;;17.40;88.49;98009.63;5002556;28;19921;-62
2021/07/31 04:22:43;;;;;;;;;;;;;;;17.69;88.67;98022.22;5007657;28;20299;-62
2021/07/31 04:25:09;;;;;;;;;;;;;;;17.24;92.11;98035.16;5004307;28;19925;-63
2021/07/31 04:27:34;;;;;;;;;;;;;;;17.59;87.97;98034.31;5002736;28;20429;-61
2021/07/31 04:30:00;;;;;;;;;;;;;;;17.33;90.57;98031.88;5004377;28;20376;-62
2021/07/31 04:32:25;;;;;;;;;;;;;;;17.35;87.95;98032.59;5008710;28;19925;-60
2021/07/31 04:34:51;;;;;;;;;;;;;;;17.64;88.53;98026.97;5007567;28;20028;-61
2021/07/31 04:37:16;;;;;;;;;;;;;;;17.32;90.64;98030.22;5006329;28;19965;-62
2021/07/31 04:39:42;;;;;;;;;;;;;;;17.29;90.47;98038.28;5004699;28;20375;-60
2021/07/31 04:42:07;;;;;;;;;;;;;;;17.46;90.40;98030.00;5008301;28;20387;-59
2021/07/31 04:44:32;;;;;;;;;;;;;;;17.56;86.55;98030.97;5003763;28;20339;-60
2021/07/31 04:46:58;;;;;;;;;;;;;;;17.64;87.85;98032.16;5003148;28;19921;-60
2021/07/31 04:49:23;;;;;;;;;;;;;;;17.42;88.91;98038.97;5008795;28;19960;-62
2021/07/31 04:51:49;;;;;;;;;;;;;;;17.58;87.61;98037.84;5008160;28;19991;-63
2021/07/31 04:54:15;;;;;;;;;;;;;;;18.15;84.52;98034.31;5008847;28;20278;-60
2021/07/31 04:56:40;;;;;;;;;;;;;;;17.77;86.53;98043.31;5003558;28;20000;-63
2021/07/31 04:59:06;;;;;;;;;;;;;;;17.67;89.48;98047.53;4999754;28;20015;-61
2021/07/31 05:01:31;;;;;;;;;;;;;;;17.70;83.77;98042.13;5007820;28;19913;-62
2021/07/31 05:03:56;;;;;;;;;;;;;;;17.76;88.12;98046.84;5011251;28;19932;-62
2021/07/31 05:06:22;;;;;;;;;;;;;;;17.91;84.87;98044.88;5005178;28;19921;-63
2021/07/31 05:08:51;;;;;;;;;;;;;;;17.96;85.18;98043.56;5004044;28;19931;-63
2021/07/31 05:11:18;;;;;;;;;;;;;;;17.76;85.44;98044.22;5005824;28;19940;-61
2021/07/31 05:13:43;;;;;;;;;;;;;;;17.52;88.82;98050.38;5001727;28;19921;-63
2021/07/31 05:16:12;;;;;;;;;;;;;;;17.46;91.03;98048.22;5003186;28;19931;-62
2021/07/31 05:18:38;;;;;;;;;;;;;;;18.15;84.92;98057.75;5006964;28;20004;-63
2021/07/31 05:21:06;;;;;;;;;;;;;;;17.62;88.61;98055.69;5001954;28;20335;-63
2021/07/31 05:23:31;;;;;;;;;;;;;;;17.99;86.50;98052.91;5007540;28;20016;-62
2021/07/31 05:25:57;;;;;;;;;;;;;;;18.63;81.13;98057.41;5002341;28;20004;-62
2021/07/31 05:28:22;;;;;;;;;;;;;;;18.24;85.44;98064.03;5007050;28;19922;-60
2021/07/31 05:30:47;;;;;;;;;;;;;;;18.18;85.58;98060.13;5007150;28;20819;-63
2021/07/31 05:33:13;;;;;;;;;;;;;;;18.22;86.65;98052.88;4986728;28;20330;-63
2021/07/31 05:35:38;;;;;;;;;;;;;;;18.59;82.63;98056.03;5008483;28;20363;-61
2021/07/31 05:38:04;;;;;;;;;;;;;;;18.03;86.66;98053.50;5006915;28;19932;-62
2021/07/31 05:40:29;;;;;;;;;;;;;;;18.06;86.17;98068.88;5003787;28;20035;-61
2021/07/31 05:42:55;;;;;;;;;;;;;;;18.44;85.29;98072.88;5004584;28;20360;-63
2021/07/31 05:45:20;;;;;;;;;;;;;;;18.33;85.00;98063.31;5002720;28;19925;-63
2021/07/31 05:47:45;;;;;;;;;;;;;;;18.26;84.48;98062.13;5007182;28;19923;-62
2021/07/31 05:50:11;;;;;;;;;;;;;;;18.31;84.77;98068.63;5002092;28;19952;-62
2021/07/31 05:52:37;;;;;;;;;;;;;;;18.22;87.09;98064.13;5007995;28;19924;-61
2021/07/31 05:55:03;;;;;;;;;;;;;;;17.86;85.32;98084.31;5013467;28;20446;-61
2021/07/31 05:57:28;;;;;;;;;;;;;;;17.96;87.02;98074.00;5013101;28;19913;-62
2021/07/31 05:59:57;;;;;;;;;;;;;;;18.28;84.80;98068.88;5008169;28;20584;-62
2021/07/31 06:02:22;;;;;;;;;;;;;;;18.07;87.61;98070.56;5002377;28;20481;-63
2021/07/31 06:04:48;;;;;;;;;;;;;;;18.43;82.34;98076.44;5006688;28;19925;-62
2021/07/31 06:07:13;;;;;;;;;;;;;;;18.10;85.23;98085.94;5002821;28;19921;-63
2021/07/31 06:09:39;;;;;;;;;;;;;;;17.86;87.30;98078.22;5000384;28;19925;-62
2021/07/31 06:12:05;;;;;;;;;;;;;;;17.76;89.65;98083.28;5008669;28;20407;-61
2021/07/31 06:14:32;;;;;;;;;;;;;;;17.83;89.65;98079.31;4985595;28;19929;-62
2021/07/31 06:16:58;;;;;;;;;;;;;;;18.09;87.66;98089.53;4998640;28;19952;-62
2021/07/31 06:19:23;;;;;;;;;;;;;;;18.03;87.49;98087.38;4994265;28;19952;-63
2021/07/31 06:21:49;;;;;;;;;;;;;;;18.31;86.72;98084.25;4992122;28;19924;-62
2021/07/31 06:24:14;;;;;;;;;;;;;;;18.12;85.94;98078.84;4999339;28;19925;-61
2021/07/31 06:26:40;;;;;;;;;;;;;;;18.11;85.17;98088.44;5010847;28;19952;-62
2021/07/31 06:29:05;;;;;;;;;;;;;;;18.01;85.99;98084.06;5001558;28;19964;-62
2021/07/31 06:31:31;;;;;;;;;;;;;;;18.10;86.94;98096.38;5007772;28;20366;-62
2021/07/31 06:33:59;;;;;;;;;;;;;;;17.95;86.99;98088.81;5015407;28;19917;-62
2021/07/31 06:36:24;;;;;;;;;;;;;;;17.74;90.25;98095.59;5009624;28;19918;-62
2021/07/31 06:38:50;;;;;;;;;;;;;;;17.95;87.98;98088.81;5009140;28;19995;-60
2021/07/31 06:41:17;;;;;;;;;;;;;;;18.01;90.73;98090.09;5014359;28;19917;-61
2021/07/31 06:43:42;;;;;;;;;;;;;;;17.98;88.03;98090.34;5003695;28;19922;-63
2021/07/31 06:46:10;;;;;;;;;;;;;;;17.83;89.86;98079.31;4998006;28;19917;-63
2021/07/31 06:48:36;;;;;;;;;;;;;;;18.39;86.09;98086.28;5000335;28;19921;-60
2021/07/31 06:51:02;;;;;;;;;;;;;;;18.29;87.16;98080.13;5006126;28;19918;-63
2021/07/31 06:53:27;;;;;;;;;;;;;;;18.16;88.07;98085.47;5001913;28;19918;-60
2021/07/31 06:55:53;;;;;;;;;;;;;;;18.57;83.39;98086.63;5000914;28;19921;-60
2021/07/31 06:58:18;;;;;;;;;;;;;;;18.54;84.78;98074.66;5002882;28;19925;-62
2021/07/31 07:00:43;;;;;;;;;;;;;;;18.63;83.38;98082.69;5000011;28;19929;-61
2021/07/31 07:03:09;;;;;;;;;;;;;;;18.58;85.95;98090.88;5006541;28;19929;-62
2021/07/31 07:05:34;;;;;;;;;;;;;;;18.72;82.38;98093.19;5010326;28;19926;-63
2021/07/31 07:08:00;;;;;;;;;;;;;;;18.56;86.51;98097.97;4999225;28;19921;-62
2021/07/31 07:10:25;;;;;;;;;;;;;;;18.73;85.10;98092.25;5007702;28;19921;-60
2021/07/31 07:12:50;;;;;;;;;;;;;;;18.37;87.80;98091.63;5002337;28;19928;-62
2021/07/31 07:15:16;;;;;;;;;;;;;;;18.88;83.69;98094.63;5000372;28;19944;-62
2021/07/31 07:17:41;;;;;;;;;;;;;;;18.29;86.92;98098.38;5000257;28;19948;-63
2021/07/31 07:20:07;;;;;;;;;;;;;;;18.56;87.31;98101.41;4999052;28;19917;-62
2021/07/31 07:22:32;;;;;;;;;;;;;;;19.02;84.67;98102.16;5000597;28;19961;-62
2021/07/31 07:24:58;;;;;;;;;;;;;;;18.49;84.17;98102.84;4999470;28;19963;-63
2021/07/31 07:27:23;;;;;;;;;;;;;;;18.00;89.44;98116.28;5007506;28;20383;-62
2021/07/31 07:29:48;;;;;;;;;;;;;;;19.00;85.28;98106.69;5010559;28;19964;-60
2021/07/31 07:32:13;;;;;;;;;;;;;;;19.28;82.44;98114.88;5006220;28;19918;-60
2021/07/31 07:34:39;;;;;;;;;;;;;;;19.13;82.43;98115.16;5007174;28;19922;-60
2021/07/31 07:37:05;;;;;;;;;;;;;;;19.29;81.62;98121.75;5004188;28;19925;-62
2021/07/31 07:39:30;;;;;;;;;;;;;;;19.19;82.95;98125.09;5007552;28;19964;-62
2021/07/31 07:41:55;;;;;;;;;;;;;;;19.17;82.35;98118.34;5006180;28;19918;-62
2021/07/31 07:44:21;;;;;;;;;;;;;;;18.80;85.07;98121.31;4992036;28;19956;-61
2021/07/31 07:46:46;;;;;;;;;;;;;;;19.50;81.10;98120.00;5001131;28;19940;-63
2021/07/31 07:49:12;;;;;;;;;;;;;;;19.47;79.80;98117.63;5000085;28;19961;-62
2021/07/31 07:51:39;;;;;;;;;;;;;;;19.50;80.40;98124.38;4995326;28;20821;-63
2021/07/31 07:54:35;;;;;;;;;;;;;;;18.86;83.56;98135.66;5003039;28;19928;-61
2021/07/31 07:57:04;;;;;;;;;;;;;;;19.54;81.37;98138.81;4980511;28;19944;-63
2021/07/31 07:59:30;;;;;;;;;;;;;;;19.52;81.51;98125.88;5008218;28;19921;-63
2021/07/31 08:01:55;;;;;;;;;;;;;;;20.23;78.01;98135.66;4991391;28;20934;-62
2021/07/31 08:04:20;;;;;;;;;;;;;;;19.63;83.11;98128.44;5009887;28;19967;-61
2021/07/31 08:06:46;;;;;;;;;;;;;;;19.62;82.17;98129.41;5012803;28;19914;-62
2021/07/31 08:09:11;;;;;;;;;;;;;;;19.96;81.19;98134.47;4994964;28;19917;-62
2021/07/31 08:11:37;;;;;;;;;;;;;;;20.98;77.88;98128.31;5011243;28;20342;-62
2021/07/31 08:14:02;;;;;;;;;;;;;;;21.46;77.58;98130.16;5007338;28;19930;-62
2021/07/31 08:16:27;;;;;;;;;;;;;;;21.39;68.36;98131.63;5000278;28;20003;-61
2021/07/31 08:18:53;;;;;;;;;;;;;;;21.35;70.87;98138.13;5006225;28;19917;-63
2021/07/31 08:21:18;;;;;;;;;;;;;;;21.21;69.94;98140.22;4986005;28;19917;-60
2021/07/31 08:23:47;;;;;;;;;;;;;;;21.06;74.38;98125.88;5006974;28;19926;-61
2021/07/31 08:26:12;;;;;;;;;;;;;;;20.79;68.57;98113.44;5012152;28;20367;-62
2021/07/31 08:28:39;;;;;;;;;;;;;;;21.50;68.19;98123.66;5008221;28;19928;-61
2021/07/31 08:31:05;;;;;;;;;;;;;;;20.84;72.69;98132.16;5005651;28;19918;-63
2021/07/31 08:33:31;;;;;;;;;;;;;;;21.00;73.67;98135.06;5006430;28;19918;-63
2021/07/31 08:35:57;;;;;;;;;;;;;;;22.05;69.63;98139.53;5005819;28;19917;-62
2021/07/31 08:38:22;;;;;;;;;;;;;;;21.57;68.13;98140.47;5004575;28;19932;-63
2021/07/31 08:40:48;;;;;;;;;;;;;;;21.38;67.33;98133.44;5007163;28;19913;-62
2021/07/31 08:43:13;;;;;;;;;;;;;;;22.63;63.27;98137.69;5009041;28;19917;-62
2021/07/31 08:45:39;;;;;;;;;;;;;;;22.66;62.84;98153.13;5000128;28;19944;-62
2021/07/31 08:48:04;;;;;;;;;;;;;;;22.16;68.19;98156.09;5004968;28;20395;-63
2021/07/31 08:50:29;;;;;;;;;;;;;;;21.74;68.03;98151.25;4989956;28;19918;-62
2021/07/31 08:52:55;;;;;;;;;;;;;;;20.39;71.15;98154.31;5004518;28;19940;-62
2021/07/31 08:55:20;;;;;;;;;;;;;;;21.17;71.29;98154.53;4976813;28;19924;-62
2021/07/31 08:57:46;;;;;;;;;;;;;;;21.92;68.17;98149.53;5002468;28;19972;-63
2021/07/31 09:00:11;;;;;;;;;;;;;;;22.36;66.55;98152.44;5000889;28;19936;-61
2021/07/31 09:02:41;;;;;;;;;;;;;;;22.85;63.14;98163.50;5001738;28;19921;-61
2021/07/31 09:05:06;;;;;;;;;;;;;;;22.63;63.00;98159.50;4980670;28;19922;-62
2021/07/31 09:07:32;;;;;;;;;;;;;;;21.36;67.24;98168.59;5001636;28;20011;-63
2021/07/31 09:10:00;;;;;;;;;;;;;;;22.37;65.48;98169.84;4996438;28;19948;-62
2021/07/31 09:12:25;;;;;;;;;;;;;;;23.28;64.25;98159.38;4969088;28;20543;-61
2021/07/31 09:14:51;;;;;;;;;;;;;;;22.09;64.82;98171.56;4996073;28;19922;-63
2021/07/31 09:17:21;;;;;;;;;;;;;;;21.86;64.48;98171.06;4995053;28;20000;-63
2021/07/31 09:19:47;;;;;;;;;;;;;;;22.06;66.27;98164.81;5001011;28;20353;-62
2021/07/31 09:22:12;;;;;;;;;;;;;;;22.68;62.95;98173.00;5001102;28;19921;-62
2021/07/31 09:24:37;;;;;;;;;;;;;;;22.47;62.75;98162.75;5002821;28;20013;-63
2021/07/31 09:27:03;;;;;;;;;;;;;;;22.27;62.42;98163.81;4986705;28;19925;-60
2021/07/31 09:29:29;;;;;;;;;;;;;;;22.95;61.10;98179.22;4983342;28;19913;-62
2021/07/31 09:31:57;;;;;;;;;;;;;;;23.06;59.33;98170.31;4995835;28;19921;-62
2021/07/31 09:34:23;;;;;;;;;;;;;;;21.70;61.90;98180.31;5006914;28;19957;-63
2021/07/31 09:36:48;;;;;;;;;;;;;;;20.85;68.03;98183.56;4988047;28;19913;-63
2021/07/31 09:39:14;;;;;;;;;;;;;;;22.07;64.13;98179.56;4968811;28;20371;-64
2021/07/31 09:41:39;;;;;;;;;;;;;;;23.94;56.08;98167.81;5002445;28;20170;-62
2021/07/31 09:44:09;;;;;;;;;;;;;;;22.71;55.93;98174.50;5005216;28;20419;-63
2021/07/31 09:46:36;;;;;;;;;;;;;;;21.76;61.02;98175.47;4986798;28;20334;-62
2021/07/31 09:49:01;;;;;;;;;;;;;;;22.36;63.52;98178.69;5001357;28;20441;-63
2021/07/31 09:51:37;;;;;;;;;;;;;;;23.08;60.37;98173.63;4992158;28;19925;-64
2021/07/31 09:54:03;;;;;;;;;;;;;;;22.05;63.44;98170.19;4991916;28;20657;-60
2021/07/31 09:56:29;;;;;;;;;;;;;;;22.05;61.72;98178.06;4981068;28;19948;-62
2021/07/31 09:58:55;;;;;;;;;;;;;;;21.60;62.72;98187.38;4985776;28;19925;-61
2021/07/31 10:01:21;;;;;;;;;;;;;;;20.99;65.95;98187.56;4972220;28;19928;-63
2021/07/31 10:03:47;;;;;;;;;;;;;;;21.98;63.75;98188.28;4992809;28;19968;-64
2021/07/31 10:06:12;;;;;;;;;;;;;;;21.50;66.18;98191.78;4981590;28;20371;-63
2021/07/31 10:08:38;;;;;;;;;;;;;;;22.53;62.66;98185.81;4965078;28;19921;-61
2021/07/31 10:11:03;;;;;;;;;;;;;;;21.70;63.83;98193.41;4979374;28;20353;-61
2021/07/31 10:13:29;;;;;;;;;;;;;;;21.96;63.52;98187.59;5002025;28;19922;-62
2021/07/31 10:15:54;;;;;;;;;;;;;;;23.60;59.54;98184.28;4996886;28;20399;-62
2021/07/31 10:18:23;;;;;;;;;;;;;;;24.31;53.95;98190.38;4987304;28;20413;-62
2021/07/31 10:20:48;;;;;;;;;;;;;;;23.16;56.24;98186.84;4987011;28;19917;-62
2021/07/31 10:23:14;;;;;;;;;;;;;;;22.69;58.03;98202.69;4985144;28;20322;-64
2021/07/31 10:25:52;;;;;;;;;;;;;;;22.72;58.67;98199.81;4974603;28;19968;-63
2021/07/31 10:28:28;;;;;;;;;;;;;;;22.52;61.79;98205.13;4985613;28;19917;-63
2021/07/31 10:30:53;;;;;;;;;;;;;;;22.02;60.51;98205.38;4973810;28;21057;-63
2021/07/31 10:33:37;;;;;;;;;;;;;;;23.05;59.97;98211.53;4994478;28;19929;-63
2021/07/31 10:36:23;;;;;;;;;;;;;;;22.96;54.79;98218.44;4995397;28;19928;-62
2021/07/31 10:38:48;;;;;;;;;;;;;;;22.21;60.25;98216.78;4991522;28;19926;-63
2021/07/31 10:41:14;;;;;;;;;;;;;;;22.89;59.70;98214.75;5004967;28;19979;-63
2021/07/31 10:43:39;;;;;;;;;;;;;;;22.86;59.08;98212.44;4980760;28;19926;-62
2021/07/31 10:46:16;;;;;;;;;;;;;;;23.03;61.24;98217.91;4977062;28;19921;-62
2021/07/31 10:48:41;;;;;;;;;;;;;;;22.19;59.98;98219.59;4984952;28;19945;-63
2021/07/31 10:51:07;;;;;;;;;;;;;;;22.58;58.18;98223.88;5005718;28;19914;-63
2021/07/31 10:53:48;;;;;;;;;;;;;;;22.20;56.81;98220.41;5004067;28;20311;-62
2021/07/31 10:56:13;;;;;;;;;;;;;;;23.61;58.01;98217.50;5006795;28;19937;-61
2021/07/31 10:58:38;;;;;;;;;;;;;;;23.19;56.24;98218.06;4987679;28;19931;-63
2021/07/31 11:01:22;;;;;;;;;;;;;;;23.58;60.11;98223.88;4986624;28;19960;-64
2021/07/31 11:03:48;;;;;;;;;;;;;;;23.08;57.22;98220.91;4975606;28;19929;-61
2021/07/31 11:06:14;;;;;;;;;;;;;;;23.15;59.38;98222.00;4999994;28;20004;-61
2021/07/31 11:08:45;;;;;;;;;;;;;;;23.97;56.54;98228.00;5004577;28;20295;-63
2021/07/31 11:11:13;;;;;;;;;;;;;;;23.30;56.90;98225.75;5006139;28;19960;-62
2021/07/31 11:13:39;;;;;;;;;;;;;;;23.36;55.54;98224.34;5010015;28;19928;-62
2021/07/31 11:16:09;;;;;;;;;;;;;;;22.12;58.32;98244.69;5009167;28;19913;-62
2021/07/31 11:18:42;;;;;;;;;;;;;;;23.27;55.42;98241.00;5001803;28;19924;-60
2021/07/31 11:21:10;;;;;;;;;;;;;;;23.88;54.40;98234.16;5002859;28;19936;-62
2021/07/31 11:23:39;;;;;;;;;;;;;;;23.07;58.09;98240.28;5001549;28;19921;-62
2021/07/31 11:26:05;;;;;;;;;;;;;;;23.69;56.30;98235.94;4985302;28;19921;-62
2021/07/31 11:28:30;;;;;;;;;;;;;;;21.98;59.49;98242.50;4992945;28;20390;-62
2021/07/31 11:30:55;;;;;;;;;;;;;;;21.73;63.94;98249.97;4996464;28;20007;-62
2021/07/31 11:33:25;;;;;;;;;;;;;;;21.68;59.25;98247.75;5009859;28;20398;-63
2021/07/31 11:35:52;;;;;;;;;;;;;;;22.78;62.05;98254.31;5005159;28;20291;-60
2021/07/31 11:38:37;;;;;;;;;;;;;;;22.72;58.84;98252.31;5004571;28;19991;-63
2021/07/31 11:41:04;;;;;;;;;;;;;;;23.57;55.53;98250.31;5007758;28;19964;-64
2021/07/31 11:43:50;;;;;;;;;;;;;;;22.87;59.64;98245.59;5005389;28;19920;-63
2021/07/31 11:46:32;;;;;;;;;;;;;;;24.40;54.92;98231.56;5005471;28;20837;-63
2021/07/31 11:48:58;;;;;;;;;;;;;;;24.14;50.89;98229.75;5009382;28;20004;-63
2021/07/31 11:51:23;;;;;;;;;;;;;;;24.46;54.50;98216.97;5005862;28;19953;-61
2021/07/31 11:53:52;;;;;;;;;;;;;;;23.78;51.28;98229.81;5002460;28;19968;-62
2021/07/31 11:56:19;;;;;;;;;;;;;;;24.56;57.09;98226.44;5002671;28;19917;-63
2021/07/31 11:58:45;;;;;;;;;;;;;;;24.17;50.69;98232.06;4990093;28;19917;-63
2021/07/31 12:01:10;;;;;;;;;;;;;;;25.11;48.48;98232.22;5009143;28;19921;-63
2021/07/31 12:03:54;;;;;;;;;;;;;;;26.00;49.55;98222.81;5008456;28;20349;-62
2021/07/31 12:06:36;;;;;;;;;;;;;;;25.62;49.45;98230.38;5008617;28;19917;-63
2021/07/31 12:09:07;;;;;;;;;;;;;;;25.73;44.24;98237.97;5010008;28;19924;-63
2021/07/31 12:11:37;;;;;;;;;;;;;;;25.77;46.31;98238.44;5010836;28;19964;-63
2021/07/31 12:14:25;;;;;;;;;;;;;;;26.28;47.64;98239.94;5008099;28;19929;-63
2021/07/31 12:16:51;;;;;;;;;;;;;;;26.11;46.10;98243.56;4996851;28;19914;-62
2021/07/31 12:19:16;;;;;;;;;;;;;;;23.77;48.39;98238.69;4991356;28;19935;-64
2021/07/31 12:21:41;;;;;;;;;;;;;;;25.23;50.11;98241.53;5006665;28;19921;-63
2021/07/31 12:24:15;;;;;;;;;;;;;;;25.32;49.08;98242.38;4985093;28;19921;-62
2021/07/31 12:26:41;;;;;;;;;;;;;;;25.56;48.95;98246.84;4985273;28;20330;-62
2021/07/31 12:29:06;;;;;;;;;;;;;;;26.52;43.47;98246.13;4985117;28;19917;-62
2021/07/31 12:31:32;;;;;;;;;;;;;;;24.55;45.23;98232.66;5001618;28;19921;-62
2021/07/31 12:33:58;;;;;;;;;;;;;;;25.39;49.12;98236.28;4985300;28;20361;-62
2021/07/31 12:36:23;;;;;;;;;;;;;;;25.96;46.56;98245.25;4997139;28;19936;-62
2021/07/31 12:38:50;;;;;;;;;;;;;;;24.15;51.94;98234.06;4982515;28;20165;-62
2021/07/31 12:41:25;;;;;;;;;;;;;;;26.14;48.10;98230.06;4999020;28;19936;-62
2021/07/31 12:43:50;;;;;;;;;;;;;;;25.34;48.95;98233.31;4983958;28;19925;-61